aviador You're here:

KLRD Decoded Metar

LAREDO in TX, USA
Report Time2018-02-22 06:41:00
UTC Time2018-02-22 06:50:18
Flight Rules ifr IFR
Wind010° at 06 kt
W.Decomp.*RWY 35: 5.9 kt HW 1.2 kt RCW
RWY 32: 4.5 kt HW 4.0 kt RCW
W.Rank010° ranks 17
Current wind is below 010° avg. (9.2)
Visibility4828 m
Phenomena:Light Rain
Mist
Clouds:Overcast 005 Hf
Expected CloudBase > 400 ft AGL from Temp-Dew spread
Ceiling500 ft
Temp09°C (ISA -5)
Dew Point08°C (94% RH)
AAT6.4°C
QNH1023 hPa
Density Alt-279 ft
Elevation509 ft
Report Wrong Elevation
Raw Report
KLRD 220641Z AUTO 01006KT 3SM -RA BR OVC005 09/08 A3020 RMK AO2
CIG 004V009 P0000=

Extra information for KLRD:More info

Metar Taf Metar & Taf Last 4 Metars F.Rules Stats Wind Profile Meteogram Temp Stats Airport Information Weather charts Add Link Nearby VenuesMetar ALERT Operation Metar Decoded Social comments

AIRNAV info for KLRD